createdAt,value
2017-12-04T00:01:31.021Z,19.13
2017-12-04T00:03:58.704Z,19.77
2017-12-04T00:06:26.427Z,20.97
2017-12-04T00:08:54.107Z,17.70
2017-12-04T00:11:21.831Z,18.97
2017-12-04T00:13:49.526Z,18.70
2017-12-04T00:16:17.263Z,20.00
2017-12-04T00:18:44.918Z,18.70
2017-12-04T00:21:12.692Z,19.63
2017-12-04T00:23:40.417Z,20.00
2017-12-04T00:26:08.093Z,19.57
2017-12-04T00:28:35.807Z,18.93
2017-12-04T00:31:03.472Z,18.43
2017-12-04T00:33:31.938Z,18.80
2017-12-04T00:35:59.624Z,19.73
2017-12-04T00:38:28.090Z,20.07
2017-12-04T00:40:56.515Z,19.33
2017-12-04T00:43:24.218Z,20.70
2017-12-04T00:45:51.874Z,18.97
2017-12-04T00:48:19.575Z,18.77
2017-12-04T00:50:47.228Z,18.70
2017-12-04T00:53:14.942Z,19.00
2017-12-04T00:55:42.606Z,19.90
2017-12-04T00:58:10.279Z,18.30
2017-12-04T01:00:37.978Z,20.50
2017-12-04T01:03:05.675Z,20.27
2017-12-04T01:05:33.407Z,17.73
2017-12-04T01:08:01.094Z,18.70
2017-12-04T01:10:28.804Z,17.93
2017-12-04T01:12:56.463Z,18.37
2017-12-04T01:15:24.165Z,16.53
2017-12-04T01:17:51.827Z,19.97
2017-12-04T01:20:19.558Z,16.93
2017-12-04T01:22:47.216Z,18.67
2017-12-04T01:25:14.927Z,17.97
2017-12-04T01:27:42.607Z,18.53
2017-12-04T01:30:11.070Z,17.90
2017-12-04T01:32:38.743Z,16.47
2017-12-04T01:35:07.227Z,17.20
2017-12-04T01:37:35.659Z,17.80
2017-12-04T01:40:03.371Z,19.10
2017-12-04T01:42:31.799Z,16.90
2017-12-04T01:44:59.542Z,18.03
2017-12-04T01:47:27.250Z,16.83
2017-12-04T01:49:55.683Z,17.50
2017-12-04T01:52:23.450Z,16.77
2017-12-04T01:54:51.157Z,17.77
2017-12-04T01:57:19.667Z,16.80
2017-12-04T01:59:47.318Z,17.57
2017-12-04T02:02:15.088Z,18.77
2017-12-04T02:04:42.798Z,18.27
2017-12-04T02:07:10.570Z,17.50
2017-12-04T02:09:38.267Z,15.33
2017-12-04T02:12:05.985Z,17.27
2017-12-04T02:14:33.639Z,15.40
2017-12-04T02:17:01.336Z,17.10
2017-12-04T02:19:29.027Z,17.23
2017-12-04T02:21:56.796Z,17.10
2017-12-04T02:24:24.498Z,16.20
2017-12-04T02:26:53.037Z,15.73
2017-12-04T02:29:20.785Z,17.10
2017-12-04T02:31:48.504Z,18.00
2017-12-04T02:34:16.968Z,14.63
2017-12-04T02:36:44.618Z,15.87
2017-12-04T02:39:12.322Z,17.43
2017-12-04T02:41:40.086Z,18.00
2017-12-04T02:44:07.846Z,16.30
2017-12-04T02:46:35.564Z,17.23
2017-12-04T02:49:03.343Z,16.43
2017-12-04T02:51:31.830Z,17.47
2017-12-04T02:54:00.365Z,17.53
2017-12-04T02:56:28.111Z,17.30
2017-12-04T02:58:55.875Z,16.60
2017-12-04T03:01:23.611Z,15.83
2017-12-04T03:03:51.347Z,17.10
2017-12-04T03:06:19.768Z,17.80
2017-12-04T03:08:47.495Z,15.63
2017-12-04T03:11:15.918Z,16.23
2017-12-04T03:13:43.630Z,15.47
2017-12-04T03:16:12.135Z,16.87
2017-12-04T03:18:39.824Z,15.83
2017-12-04T03:21:07.585Z,15.37
2017-12-04T03:23:35.311Z,17.60
2017-12-04T03:26:03.075Z,16.33
2017-12-04T03:28:30.798Z,15.97
2017-12-04T03:30:59.332Z,15.97
2017-12-04T03:33:27.050Z,17.90
2017-12-04T03:35:55.595Z,15.30
2017-12-04T03:38:23.319Z,15.57
2017-12-04T03:40:51.125Z,16.80
2017-12-04T03:43:18.847Z,15.97
2017-12-04T03:45:46.640Z,14.83
2017-12-04T03:48:14.343Z,16.33
2017-12-04T03:50:42.808Z,15.67
2017-12-04T03:53:11.239Z,17.43
2017-12-04T03:55:38.962Z,15.87
2017-12-04T03:58:07.386Z,15.63
2017-12-04T04:00:35.094Z,15.03
2017-12-04T04:03:03.536Z,16.67
2017-12-04T04:05:31.195Z,16.50
2017-12-04T04:07:58.900Z,16.20
2017-12-04T04:10:26.555Z,15.67
2017-12-04T04:12:55.018Z,15.63
2017-12-04T04:15:23.446Z,16.07
2017-12-04T04:17:51.143Z,16.73
2017-12-04T04:20:18.867Z,16.20
2017-12-04T04:22:47.933Z,16.87
2017-12-04T04:25:15.659Z,15.43
2017-12-04T04:27:43.369Z,15.70
2017-12-04T04:30:11.035Z,16.70
2017-12-04T04:32:38.739Z,16.57
2017-12-04T04:35:06.407Z,16.03
2017-12-04T04:37:34.887Z,15.50
2017-12-04T04:40:03.325Z,16.87
2017-12-04T04:42:31.878Z,15.90
2017-12-04T04:44:59.587Z,16.33
2017-12-04T04:47:27.324Z,16.20
2017-12-04T04:49:55.055Z,15.77
2017-12-04T04:52:22.806Z,15.90
2017-12-04T04:54:50.586Z,15.10
2017-12-04T04:57:18.292Z,17.60
2017-12-04T04:59:46.063Z,16.67
2017-12-04T05:02:14.534Z,15.60
2017-12-04T05:04:42.285Z,17.07
2017-12-04T05:07:09.971Z,16.70
2017-12-04T05:09:38.492Z,14.80
2017-12-04T05:12:06.207Z,16.50
2017-12-04T05:14:34.726Z,16.10
2017-12-04T05:17:02.578Z,15.70
2017-12-04T05:19:30.408Z,18.17
2017-12-04T05:21:58.294Z,15.73
2017-12-04T05:24:26.847Z,15.60
2017-12-04T05:26:54.505Z,16.23
2017-12-04T05:29:22.214Z,17.00
2017-12-04T05:31:49.921Z,16.80
2017-12-04T05:34:17.682Z,16.57
2017-12-04T05:36:45.388Z,15.27
2017-12-04T05:39:13.078Z,15.30
2017-12-04T05:41:40.836Z,14.73
2017-12-04T05:44:08.531Z,14.33
2017-12-04T05:46:36.271Z,16.10
2017-12-04T05:49:03.971Z,15.50
2017-12-04T05:51:32.482Z,15.20
2017-12-04T05:54:00.148Z,15.03
2017-12-04T05:56:27.891Z,15.17
2017-12-04T05:58:55.596Z,16.50
2017-12-04T06:01:23.297Z,15.87
2017-12-04T06:03:51.715Z,14.37
2017-12-04T06:06:19.409Z,15.43
2017-12-04T06:08:47.080Z,15.13
2017-12-04T06:11:15.560Z,14.63
2017-12-04T06:13:43.987Z,15.53
2017-12-04T06:16:11.686Z,14.80
2017-12-04T06:18:39.359Z,14.97
2017-12-04T06:21:07.835Z,15.50
2017-12-04T06:23:36.267Z,15.30
2017-12-04T06:26:03.974Z,14.60
2017-12-04T06:28:32.445Z,12.63
2017-12-04T06:31:00.163Z,14.97
2017-12-04T06:33:28.643Z,14.27
2017-12-04T06:35:56.304Z,13.63
2017-12-04T06:38:24.007Z,14.00
2017-12-04T06:40:52.440Z,14.80
2017-12-04T06:43:20.143Z,14.37
2017-12-04T06:45:47.806Z,13.37
2017-12-04T06:48:16.344Z,14.40
2017-12-04T06:50:44.047Z,12.93
2017-12-04T06:53:12.559Z,14.30
2017-12-04T06:55:40.267Z,13.73
2017-12-04T06:58:07.975Z,14.63
2017-12-04T07:00:35.631Z,12.63
2017-12-04T07:03:03.341Z,13.67
2017-12-04T07:05:31.002Z,13.23
2017-12-04T07:07:58.702Z,13.57
2017-12-04T07:10:26.354Z,12.97
2017-12-04T07:12:54.811Z,12.80
2017-12-04T07:15:22.459Z,14.80
2017-12-04T07:17:50.191Z,13.97
2017-12-04T07:20:17.851Z,14.13
2017-12-04T07:22:45.551Z,13.67
2017-12-04T07:25:13.216Z,14.90
2017-12-04T07:27:40.875Z,13.60
2017-12-04T07:30:08.571Z,16.57
2017-12-04T07:32:36.235Z,13.77
2017-12-04T07:35:03.957Z,15.40
2017-12-04T07:37:32.387Z,14.00
2017-12-04T07:40:00.092Z,15.47
2017-12-04T07:42:27.771Z,14.07
2017-12-04T07:44:56.231Z,14.53
2017-12-04T07:47:24.658Z,16.17
2017-12-04T07:49:52.361Z,15.20
2017-12-04T07:52:20.020Z,15.97
2017-12-04T07:54:47.718Z,17.47
2017-12-04T07:57:15.376Z,15.77
2017-12-04T07:59:43.080Z,18.33
2017-12-04T08:02:10.731Z,17.80
2017-12-04T08:04:38.514Z,15.30
2017-12-04T08:07:06.222Z,13.93
2017-12-04T08:09:33.935Z,15.87
2017-12-04T08:12:01.601Z,14.13
2017-12-04T08:14:30.067Z,15.00
2017-12-04T08:16:57.745Z,13.10
2017-12-04T08:19:26.231Z,14.57
2017-12-04T08:21:54.782Z,15.33
2017-12-04T08:24:22.998Z,14.37
2017-12-04T08:26:51.396Z,14.10
2017-12-04T08:29:19.653Z,14.93
2017-12-04T08:31:47.371Z,16.70
2017-12-04T08:34:15.033Z,13.40
2017-12-04T08:36:42.746Z,13.77
2017-12-04T08:39:10.399Z,15.13
2017-12-04T08:41:38.090Z,14.67
2017-12-04T08:44:05.775Z,14.23
2017-12-04T08:46:33.680Z,13.23
2017-12-04T08:49:01.347Z,14.10
2017-12-04T08:51:29.054Z,13.83
2017-12-04T08:53:56.714Z,14.20
2017-12-04T08:56:24.419Z,13.70
2017-12-04T08:58:52.071Z,15.43
2017-12-04T09:01:19.777Z,13.67
2017-12-04T09:03:47.446Z,14.97
2017-12-04T09:06:15.174Z,14.77
2017-12-04T09:08:42.848Z,15.20
2017-12-04T09:11:10.526Z,14.23
2017-12-04T09:13:38.311Z,16.00
2017-12-04T09:16:06.751Z,16.13
2017-12-04T09:18:34.476Z,13.10
2017-12-04T09:21:02.155Z,13.50
2017-12-04T09:23:29.954Z,13.47
2017-12-04T09:25:57.670Z,14.57
2017-12-04T09:28:25.412Z,14.67
2017-12-04T09:30:53.104Z,16.90
2017-12-04T09:33:20.844Z,13.10
2017-12-04T09:35:48.540Z,15.30
2017-12-04T09:38:16.274Z,14.47
2017-12-04T09:40:43.944Z,14.90
2017-12-04T09:43:11.707Z,13.50
2017-12-04T09:45:39.399Z,14.97
2017-12-04T09:48:07.107Z,15.40
2017-12-04T09:50:34.815Z,14.63
2017-12-04T09:53:02.511Z,13.70
2017-12-04T09:55:31.565Z,13.73
2017-12-04T09:57:59.282Z,13.73
2017-12-04T10:00:27.049Z,15.40
2017-12-04T10:02:54.775Z,16.60
2017-12-04T10:05:23.461Z,16.00
2017-12-04T10:07:51.967Z,14.40
2017-12-04T10:10:19.676Z,14.50
2017-12-04T10:12:47.360Z,13.53
2017-12-04T10:15:15.889Z,13.60
2017-12-04T10:17:43.587Z,14.87
2017-12-04T10:20:12.122Z,12.63
2017-12-04T10:22:39.845Z,13.90
2017-12-04T10:25:08.343Z,12.93
2017-12-04T10:27:36.067Z,15.57
2017-12-04T10:30:04.595Z,14.07
2017-12-04T10:32:32.263Z,12.10
2017-12-04T10:34:59.978Z,12.97
2017-12-04T10:37:28.420Z,16.77
2017-12-04T10:39:56.107Z,15.73
2017-12-04T10:42:24.600Z,14.10
2017-12-04T10:44:53.070Z,13.80
2017-12-04T10:47:21.595Z,13.70
2017-12-04T10:49:49.351Z,13.90
2017-12-04T10:52:17.076Z,13.67
2017-12-04T10:54:45.514Z,14.50
2017-12-04T10:57:13.250Z,14.87
2017-12-04T10:59:40.970Z,15.53
2017-12-04T11:02:09.548Z,15.57
2017-12-04T11:04:38.055Z,14.90
2017-12-04T11:07:05.824Z,14.10
2017-12-04T11:09:33.634Z,14.60
2017-12-04T11:12:01.375Z,16.93
2017-12-04T11:14:29.046Z,14.90
2017-12-04T11:16:56.764Z,13.90
2017-12-04T11:19:24.450Z,15.40
2017-12-04T11:21:52.242Z,14.97
2017-12-04T11:24:20.746Z,12.47
2017-12-04T11:26:49.204Z,14.83
2017-12-04T11:29:17.748Z,12.33
2017-12-04T11:31:45.446Z,13.30
2017-12-04T11:34:13.919Z,12.70
2017-12-04T11:36:41.583Z,13.30
2017-12-04T11:39:10.086Z,12.10
2017-12-04T11:41:37.762Z,14.57
2017-12-04T11:44:05.490Z,14.70
2017-12-04T11:46:33.954Z,12.80
2017-12-04T11:49:01.747Z,14.40
2017-12-04T11:51:29.426Z,13.77
2017-12-04T11:53:57.214Z,13.63
2017-12-04T11:56:25.163Z,13.20
2017-12-04T11:58:52.855Z,12.73
2017-12-04T12:01:20.598Z,11.33
2017-12-04T12:03:48.260Z,13.40
2017-12-04T12:06:15.983Z,12.40
2017-12-04T12:08:43.686Z,12.30
2017-12-04T12:11:12.203Z,12.50
2017-12-04T12:13:40.654Z,11.00
2017-12-04T12:16:08.359Z,12.37
2017-12-04T12:18:36.016Z,12.23
2017-12-04T12:21:03.715Z,11.90
2017-12-04T12:23:31.372Z,12.23
2017-12-04T12:25:59.066Z,11.10
2017-12-04T12:28:27.482Z,11.13
2017-12-04T12:30:55.170Z,11.00
2017-12-04T12:33:23.590Z,12.43
2017-12-04T12:35:52.091Z,10.40
2017-12-04T12:38:19.938Z,11.60
2017-12-04T12:40:47.594Z,18.33
2017-12-04T12:43:16.062Z,22.70
2017-12-04T12:45:44.629Z,11.97
2017-12-04T12:48:12.356Z,13.50
2017-12-04T12:50:40.059Z,15.27
2017-12-04T12:53:08.562Z,12.40
2017-12-04T12:55:36.222Z,10.80
2017-12-04T12:58:05.274Z,10.63
2017-12-04T13:00:33.707Z,10.60
2017-12-04T13:03:01.403Z,11.13
2017-12-04T13:05:29.064Z,9.80
2017-12-04T13:07:56.754Z,11.20
2017-12-04T13:10:25.171Z,10.97
2017-12-04T13:12:52.867Z,12.10
2017-12-04T13:15:20.534Z,10.53
2017-12-04T13:17:49.011Z,11.47
2017-12-04T13:20:16.747Z,9.90
2017-12-04T13:22:44.421Z,10.53
2017-12-04T13:25:12.142Z,9.30
2017-12-04T13:27:39.795Z,10.03
2017-12-04T13:30:07.554Z,9.60
2017-12-04T13:32:47.178Z,11.10
2017-12-04T13:35:27.562Z,11.03
2017-12-04T13:37:55.266Z,10.90
2017-12-04T13:40:22.968Z,13.53
2017-12-04T13:42:50.626Z,12.10
2017-12-04T13:45:18.334Z,12.17
2017-12-04T13:47:46.070Z,12.07
2017-12-04T13:50:13.766Z,11.87
2017-12-04T13:52:41.475Z,10.80
2017-12-04T13:55:09.131Z,11.80
2017-12-04T13:57:36.842Z,12.53
2017-12-04T14:00:04.514Z,12.80
2017-12-04T14:02:33.042Z,11.87
2017-12-04T14:05:00.770Z,11.03
2017-12-04T14:07:28.473Z,12.70
2017-12-04T14:09:56.132Z,13.90
2017-12-04T14:12:24.595Z,13.93
2017-12-04T14:14:52.269Z,16.00
2017-12-04T14:17:20.003Z,12.90
2017-12-04T14:19:47.671Z,13.00
2017-12-04T14:22:15.371Z,14.27
2017-12-04T14:24:43.042Z,13.03
2017-12-04T14:27:18.903Z,13.07
2017-12-04T14:29:47.327Z,12.47
2017-12-04T14:32:15.025Z,14.67
2017-12-04T14:34:42.770Z,11.03
2017-12-04T14:37:10.443Z,13.30
2017-12-04T14:39:38.235Z,13.57
2017-12-04T14:42:06.719Z,12.20
2017-12-04T14:44:34.438Z,10.10
2017-12-04T14:47:02.150Z,10.80
2017-12-04T14:49:29.873Z,10.13
2017-12-04T14:51:57.592Z,10.30
2017-12-04T14:54:25.358Z,9.93
2017-12-04T14:56:53.089Z,11.77
2017-12-04T14:59:20.863Z,10.33
2017-12-04T15:01:48.587Z,10.03
2017-12-04T15:04:17.163Z,11.00
2017-12-04T15:06:45.671Z,11.00
2017-12-04T15:09:13.446Z,11.20
2017-12-04T15:11:41.180Z,10.00
2017-12-04T15:14:09.756Z,10.37
2017-12-04T15:16:38.251Z,9.93
2017-12-04T15:19:05.971Z,11.80
2017-12-04T15:21:33.741Z,10.50
2017-12-04T15:24:01.462Z,10.50
2017-12-04T15:26:29.240Z,11.33
2017-12-04T15:28:56.971Z,11.73
2017-12-04T15:31:24.711Z,11.03
2017-12-04T15:33:53.209Z,9.00
2017-12-04T15:36:20.963Z,9.40
2017-12-04T15:38:48.695Z,9.90
2017-12-04T15:41:17.231Z,10.87
2017-12-04T15:43:44.963Z,10.00
2017-12-04T15:46:12.770Z,9.13
2017-12-04T15:48:40.480Z,9.33
2017-12-04T15:51:08.252Z,10.50
2017-12-04T15:53:35.980Z,9.40
2017-12-04T15:56:04.503Z,10.03
2017-12-04T15:58:32.223Z,9.57
2017-12-04T16:01:00.715Z,10.17
2017-12-04T16:03:28.491Z,9.07
2017-12-04T16:05:56.455Z,11.27
2017-12-04T16:08:24.236Z,9.10
2017-12-04T16:10:52.028Z,8.90
2017-12-04T16:13:19.790Z,10.40
2017-12-04T16:15:47.503Z,10.10
2017-12-04T16:18:19.899Z,10.20
2017-12-04T16:20:47.665Z,8.53
2017-12-04T16:23:15.388Z,9.33
2017-12-04T16:25:43.100Z,8.90
2017-12-04T16:28:10.870Z,9.10
2017-12-04T16:30:38.659Z,10.90
2017-12-04T16:33:07.221Z,13.60
2017-12-04T16:35:35.715Z,12.97
2017-12-04T16:38:04.449Z,12.40
2017-12-04T16:40:32.959Z,10.73
2017-12-04T16:43:00.631Z,9.30
2017-12-04T16:45:29.124Z,9.60
2017-12-04T16:47:57.604Z,11.60
2017-12-04T16:50:25.322Z,11.00
2017-12-04T16:52:53.046Z,11.20
2017-12-04T16:55:20.800Z,11.60
2017-12-04T16:57:48.531Z,12.20
2017-12-04T17:00:17.114Z,10.27
2017-12-04T17:02:45.695Z,9.90
2017-12-04T17:05:14.235Z,11.27
2017-12-04T17:07:41.911Z,10.70
2017-12-04T17:10:10.643Z,11.33
2017-12-04T17:12:38.355Z,13.30
2017-12-04T17:15:06.087Z,14.30
2017-12-04T17:17:33.775Z,12.10
2017-12-04T17:20:01.503Z,13.60
2017-12-04T17:22:29.179Z,16.20
2017-12-04T17:24:56.859Z,13.20
2017-12-04T17:27:24.646Z,12.33
2017-12-04T17:29:53.188Z,12.50
2017-12-04T17:32:21.024Z,11.47
2017-12-04T17:34:48.802Z,10.80
2017-12-04T17:37:16.654Z,10.27
2017-12-04T17:39:44.776Z,10.47
2017-12-04T17:42:13.259Z,11.20
2017-12-04T17:44:41.733Z,11.47
2017-12-04T17:47:10.228Z,11.73
2017-12-04T17:49:38.682Z,12.57
2017-12-04T17:52:06.432Z,17.17
2017-12-04T17:54:34.102Z,13.80
2017-12-04T17:57:01.865Z,15.73
2017-12-04T17:59:30.299Z,14.23
2017-12-04T18:01:58.032Z,12.37
2017-12-04T18:04:25.742Z,13.73
2017-12-04T18:06:55.027Z,13.23
2017-12-04T18:09:22.768Z,16.77
2017-12-04T18:11:50.515Z,11.63
2017-12-04T18:14:18.243Z,13.93
2017-12-04T18:16:46.011Z,12.03
2017-12-04T18:19:14.540Z,13.50
2017-12-04T18:21:42.315Z,11.70
2017-12-04T18:24:10.147Z,12.90
2017-12-04T18:26:37.887Z,13.90
2017-12-04T18:29:06.447Z,12.00
2017-12-04T18:31:34.345Z,12.57
2017-12-04T18:34:02.115Z,16.20
2017-12-04T18:36:29.834Z,14.50
2017-12-04T18:38:57.602Z,13.63
2017-12-04T18:41:26.299Z,12.57
2017-12-04T18:43:54.844Z,11.80
2017-12-04T18:46:22.574Z,10.53
2017-12-04T18:48:50.335Z,12.10
2017-12-04T18:51:18.058Z,11.23
2017-12-04T18:53:46.611Z,12.03
2017-12-04T18:56:14.349Z,10.80
2017-12-04T18:58:42.124Z,12.80
2017-12-04T19:01:09.856Z,12.47
2017-12-04T19:03:37.639Z,12.87
2017-12-04T19:06:05.509Z,13.90
2017-12-04T19:08:33.283Z,11.87
2017-12-04T19:11:01.059Z,13.17
2017-12-04T19:13:29.571Z,14.33
2017-12-04T19:15:57.338Z,11.93
2017-12-04T19:18:25.075Z,13.37
2017-12-04T19:20:53.616Z,12.80
2017-12-04T19:23:21.342Z,20.97
2017-12-04T19:25:49.087Z,15.20
2017-12-04T19:28:18.869Z,19.57
2017-12-04T19:30:50.518Z,14.33
2017-12-04T19:33:21.089Z,13.80
2017-12-04T19:35:52.676Z,15.30
2017-12-04T19:38:23.581Z,14.77
2017-12-04T19:40:53.529Z,15.87
2017-12-04T19:43:23.240Z,12.00
2017-12-04T19:45:53.956Z,14.40
2017-12-04T19:48:23.906Z,14.07
2017-12-04T19:50:54.154Z,14.47
2017-12-04T19:53:24.435Z,13.13
2017-12-04T19:55:55.818Z,12.20
2017-12-04T19:58:26.375Z,12.77
2017-12-04T20:00:59.025Z,12.70
2017-12-04T20:03:26.911Z,12.50
2017-12-04T20:05:54.635Z,13.37
2017-12-04T20:08:23.196Z,13.80
2017-12-04T20:10:51.764Z,15.57
2017-12-04T20:13:19.527Z,12.57
2017-12-04T20:15:47.286Z,13.87
2017-12-04T20:18:15.036Z,14.20
2017-12-04T20:20:42.781Z,15.93
2017-12-04T20:23:10.542Z,18.33
2017-12-04T20:25:38.277Z,16.87
2017-12-04T20:28:06.031Z,15.37
2017-12-04T20:30:33.759Z,44.13
2017-12-04T20:33:01.531Z,29.97
2017-12-04T20:35:30.031Z,27.43
2017-12-04T20:37:57.815Z,15.77
2017-12-04T20:40:25.541Z,18.13
2017-12-04T20:42:54.039Z,16.13
2017-12-04T20:45:21.822Z,16.07
2017-12-04T20:47:49.527Z,14.17
2017-12-04T20:50:17.292Z,15.90
2017-12-04T20:52:45.786Z,14.20
2017-12-04T20:55:14.352Z,15.37
2017-12-04T20:57:42.846Z,15.20
2017-12-04T21:00:10.615Z,16.50
2017-12-04T21:02:38.343Z,15.80
2017-12-04T21:05:06.120Z,16.30
2017-12-04T21:07:46.457Z,16.73
2017-12-04T21:10:26.971Z,16.23
2017-12-04T21:13:06.589Z,15.77
2017-12-04T21:18:39.048Z,47.50
2017-12-04T21:21:06.818Z,16.93
2017-12-04T21:23:35.291Z,16.20
2017-12-04T21:26:03.075Z,16.23
2017-12-04T21:28:31.555Z,15.43
2017-12-04T21:31:00.091Z,16.30
2017-12-04T21:33:27.821Z,15.53
2017-12-04T21:35:55.563Z,16.47
2017-12-04T21:38:23.302Z,15.90
2017-12-04T21:40:51.859Z,15.03
2017-12-04T21:43:19.586Z,16.57
2017-12-04T21:45:47.335Z,15.57
2017-12-04T21:48:15.108Z,16.63
2017-12-04T21:50:42.859Z,15.50
2017-12-04T21:53:10.655Z,15.80
2017-12-04T21:55:38.390Z,15.70
2017-12-04T21:58:06.163Z,17.07
2017-12-04T22:00:33.887Z,17.30
2017-12-04T22:03:02.379Z,16.00
2017-12-04T22:05:30.119Z,16.20
2017-12-04T22:07:58.663Z,16.17
2017-12-04T22:10:26.404Z,16.87
2017-12-04T22:12:54.150Z,16.83
2017-12-04T22:15:21.884Z,15.50
2017-12-04T22:17:50.435Z,15.67
2017-12-04T22:20:18.155Z,17.20
2017-12-04T22:22:45.955Z,16.63
2017-12-04T22:25:13.717Z,16.03
2017-12-04T22:27:41.456Z,14.27
2017-12-04T22:30:09.276Z,14.60
2017-12-04T22:32:37.005Z,14.70
2017-12-04T22:35:04.789Z,13.30
2017-12-04T22:37:33.275Z,13.20
2017-12-04T22:40:01.811Z,13.97
2017-12-04T22:42:29.599Z,15.60
2017-12-04T22:44:57.372Z,13.87
2017-12-04T22:47:25.873Z,15.67
2017-12-04T22:49:53.690Z,14.50
2017-12-04T22:52:21.411Z,14.50
2017-12-04T22:54:49.230Z,15.30
2017-12-04T22:57:17.743Z,14.80
2017-12-04T22:59:45.572Z,16.30
2017-12-04T23:02:14.015Z,14.97
2017-12-04T23:04:41.787Z,14.97
2017-12-04T23:07:09.567Z,14.90
2017-12-04T23:09:37.543Z,16.20
2017-12-04T23:12:06.035Z,15.63
2017-12-04T23:14:34.606Z,15.70
2017-12-04T23:17:03.146Z,16.60
2017-12-04T23:19:30.875Z,15.97
2017-12-04T23:21:58.683Z,16.03
2017-12-04T23:24:26.438Z,16.77
2017-12-04T23:26:54.219Z,15.40
2017-12-04T23:29:21.931Z,15.90
2017-12-04T23:31:49.687Z,13.80
2017-12-04T23:34:17.451Z,15.00
2017-12-04T23:36:45.273Z,16.07
2017-12-04T23:39:13.817Z,15.87
2017-12-04T23:41:41.551Z,16.10
2017-12-04T23:44:09.252Z,16.33
2017-12-04T23:46:36.979Z,17.37
2017-12-04T23:49:04.648Z,16.47
2017-12-04T23:51:32.390Z,16.40
2017-12-04T23:54:00.085Z,15.63
2017-12-04T23:56:27.799Z,17.40
2017-12-04T23:58:55.489Z,16.17
